sensor_id;sensor_type;location;lat;lon;timestamp;temperature;humidity
31747;DHT22;18319;48.974;8.462;2024-03-23T00:53:58;13.50;99.90
31747;DHT22;18319;48.974;8.462;2024-03-23T00:56:24;13.50;99.90
31747;DHT22;18319;48.974;8.462;2024-03-23T00:58:51;13.40;99.90
31747;DHT22;18319;48.974;8.462;2024-03-23T01:01:17;13.30;99.90
31747;DHT22;18319;48.974;8.462;2024-03-23T01:03:43;13.30;99.90
31747;DHT22;18319;48.974;8.462;2024-03-23T01:06:09;13.40;99.90
31747;DHT22;18319;48.974;8.462;2024-03-23T01:08:37;13.50;99.90
31747;DHT22;18319;48.974;8.462;2024-03-23T01:11:03;13.60;99.90
31747;DHT22;18319;48.974;8.462;2024-03-23T01:13:30;13.50;99.90
31747;DHT22;18319;48.974;8.462;2024-03-23T01:15:57;13.50;99.90
31747;DHT22;18319;48.974;8.462;2024-03-23T01:18:24;13.50;99.90
31747;DHT22;18319;48.974;8.462;2024-03-23T01:20:52;13.50;99.90
31747;DHT22;18319;48.974;8.462;2024-03-23T01:23:18;13.50;99.90
31747;DHT22;18319;48.974;8.462;2024-03-23T01:25:51;13.60;99.90
31747;DHT22;18319;48.974;8.462;2024-03-23T01:28:18;13.60;99.90
31747;DHT22;18319;48.974;8.462;2024-03-23T01:30:44;13.50;99.90
31747;DHT22;18319;48.974;8.462;2024-03-23T01:33:11;13.40;99.90
31747;DHT22;18319;48.974;8.462;2024-03-23T01:35:36;13.30;99.90
31747;DHT22;18319;48.974;8.462;2024-03-23T01:38:04;13.30;99.90
31747;DHT22;18319;48.974;8.462;2024-03-23T01:40:30;13.40;99.90
31747;DHT22;18319;48.974;8.462;2024-03-23T01:43:03;13.30;99.90
31747;DHT22;18319;48.974;8.462;2024-03-23T01:45:30;13.30;99.90
31747;DHT22;18319;48.974;8.462;2024-03-23T01:47:57;13.30;99.90
31747;DHT22;18319;48.974;8.462;2024-03-23T01:50:23;13.30;99.90
31747;DHT22;18319;48.974;8.462;2024-03-23T01:52:50;13.30;99.90
31747;DHT22;18319;48.974;8.462;2024-03-23T01:55:16;13.40;99.90
31747;DHT22;18319;48.974;8.462;2024-03-23T01:57:43;13.40;99.90
31747;DHT22;18319;48.974;8.462;2024-03-23T02:00:11;13.40;99.90
31747;DHT22;18319;48.974;8.462;2024-03-23T02:02:42;13.40;99.90
31747;DHT22;18319;48.974;8.462;2024-03-23T02:05:08;13.40;99.90
31747;DHT22;18319;48.974;8.462;2024-03-23T02:07:35;13.50;99.90
31747;DHT22;18319;48.974;8.462;2024-03-23T02:10:02;13.50;99.90
31747;DHT22;18319;48.974;8.462;2024-03-23T02:12:28;13.50;99.90
31747;DHT22;18319;48.974;8.462;2024-03-23T02:14:54;13.50;99.90
31747;DHT22;18319;48.974;8.462;2024-03-23T02:17:22;13.50;99.90
31747;DHT22;18319;48.974;8.462;2024-03-23T02:19:48;13.40;99.90
31747;DHT22;18319;48.974;8.462;2024-03-23T02:22:15;13.50;99.90
31747;DHT22;18319;48.974;8.462;2024-03-23T02:24:42;13.50;99.90
31747;DHT22;18319;48.974;8.462;2024-03-23T02:27:09;13.50;99.90
31747;DHT22;18319;48.974;8.462;2024-03-23T02:29:35;13.50;99.90
31747;DHT22;18319;48.974;8.462;2024-03-23T02:32:02;13.50;99.90
31747;DHT22;18319;48.974;8.462;2024-03-23T02:34:28;13.50;99.90
31747;DHT22;18319;48.974;8.462;2024-03-23T02:36:55;13.40;99.90
31747;DHT22;18319;48.974;8.462;2024-03-23T02:39:20;13.40;99.90
31747;DHT22;18319;48.974;8.462;2024-03-23T02:41:49;13.40;99.90
31747;DHT22;18319;48.974;8.462;2024-03-23T02:44:14;13.40;99.90
31747;DHT22;18319;48.974;8.462;2024-03-23T02:46:41;13.40;99.90
31747;DHT22;18319;48.974;8.462;2024-03-23T02:49:07;13.40;99.90
31747;DHT22;18319;48.974;8.462;2024-03-23T02:51:34;13.40;99.90
31747;DHT22;18319;48.974;8.462;2024-03-23T02:54:00;13.30;99.90
31747;DHT22;18319;48.974;8.462;2024-03-23T02:56:27;13.30;99.90
31747;DHT22;18319;48.974;8.462;2024-03-23T02:58:54;13.30;99.90
31747;DHT22;18319;48.974;8.462;2024-03-23T03:01:21;13.30;99.90
31747;DHT22;18319;48.974;8.462;2024-03-23T03:03:47;13.30;99.90
31747;DHT22;18319;48.974;8.462;2024-03-23T03:06:23;13.30;99.90
31747;DHT22;18319;48.974;8.462;2024-03-23T03:08:49;13.30;99.90
31747;DHT22;18319;48.974;8.462;2024-03-23T03:11:15;13.20;99.90
31747;DHT22;18319;48.974;8.462;2024-03-23T03:13:41;13.20;99.90
31747;DHT22;18319;48.974;8.462;2024-03-23T03:16:10;13.10;99.90
31747;DHT22;18319;48.974;8.462;2024-03-23T03:18:35;13.20;99.90
31747;DHT22;18319;48.974;8.462;2024-03-23T03:21:03;13.20;99.90
31747;DHT22;18319;48.974;8.462;2024-03-23T03:23:30;13.20;99.90
31747;DHT22;18319;48.974;8.462;2024-03-23T03:25:57;13.20;99.90
31747;DHT22;18319;48.974;8.462;2024-03-23T03:28:23;13.30;99.90
31747;DHT22;18319;48.974;8.462;2024-03-23T03:30:51;13.30;99.90
31747;DHT22;18319;48.974;8.462;2024-03-23T03:33:18;13.40;99.90
31747;DHT22;18319;48.974;8.462;2024-03-23T03:35:45;13.30;99.90
31747;DHT22;18319;48.974;8.462;2024-03-23T03:38:11;13.30;99.90
31747;DHT22;18319;48.974;8.462;2024-03-23T03:40:38;13.30;99.90
31747;DHT22;18319;48.974;8.462;2024-03-23T03:43:04;13.10;99.90
31747;DHT22;18319;48.974;8.462;2024-03-23T03:45:30;12.90;99.90
31747;DHT22;18319;48.974;8.462;2024-03-23T03:47:56;12.90;99.90
31747;DHT22;18319;48.974;8.462;2024-03-23T03:50:26;12.90;99.90
31747;DHT22;18319;48.974;8.462;2024-03-23T03:52:51;12.90;99.90
31747;DHT22;18319;48.974;8.462;2024-03-23T03:55:18;12.90;99.90
31747;DHT22;18319;48.974;8.462;2024-03-23T03:57:44;12.70;99.90
31747;DHT22;18319;48.974;8.462;2024-03-23T04:00:11;12.60;99.90
31747;DHT22;18319;48.974;8.462;2024-03-23T04:02:37;12.60;99.90
31747;DHT22;18319;48.974;8.462;2024-03-23T04:05:05;12.50;99.90
31747;DHT22;18319;48.974;8.462;2024-03-23T04:07:32;12.60;99.90
31747;DHT22;18319;48.974;8.462;2024-03-23T04:09:59;12.50;99.90
31747;DHT22;18319;48.974;8.462;2024-03-23T04:12:24;12.60;99.90
31747;DHT22;18319;48.974;8.462;2024-03-23T04:14:51;12.60;99.90
31747;DHT22;18319;48.974;8.462;2024-03-23T04:17:17;12.60;99.90
31747;DHT22;18319;48.974;8.462;2024-03-23T04:19:44;12.60;99.90
31747;DHT22;18319;48.974;8.462;2024-03-23T04:22:10;12.70;99.90
31747;DHT22;18319;48.974;8.462;2024-03-23T04:24:38;12.50;99.90
31747;DHT22;18319;48.974;8.462;2024-03-23T04:27:04;12.50;99.90
31747;DHT22;18319;48.974;8.462;2024-03-23T04:29:31;12.40;99.90
31747;DHT22;18319;48.974;8.462;2024-03-23T04:31:57;12.30;99.90
31747;DHT22;18319;48.974;8.462;2024-03-23T04:34:23;12.30;99.90
31747;DHT22;18319;48.974;8.462;2024-03-23T04:36:49;12.30;99.90
31747;DHT22;18319;48.974;8.462;2024-03-23T04:39:16;12.40;99.90
31747;DHT22;18319;48.974;8.462;2024-03-23T04:41:46;12.30;99.90
31747;DHT22;18319;48.974;8.462;2024-03-23T04:44:13;12.20;99.90
31747;DHT22;18319;48.974;8.462;2024-03-23T04:46:39;12.10;99.90
31747;DHT22;18319;48.974;8.462;2024-03-23T04:49:06;12.10;99.90
31747;DHT22;18319;48.974;8.462;2024-03-23T04:51:35;12.10;99.90
31747;DHT22;18319;48.974;8.462;2024-03-23T04:54:03;12.00;99.90
31747;DHT22;18319;48.974;8.462;2024-03-23T04:56:29;12.00;99.90
31747;DHT22;18319;48.974;8.462;2024-03-23T04:58:58;12.00;99.90
31747;DHT22;18319;48.974;8.462;2024-03-23T05:01:27;11.80;99.90
31747;DHT22;18319;48.974;8.462;2024-03-23T05:03:53;11.70;99.90
31747;DHT22;18319;48.974;8.462;2024-03-23T05:06:19;11.70;99.90
31747;DHT22;18319;48.974;8.462;2024-03-23T05:08:46;11.60;99.90
31747;DHT22;18319;48.974;8.462;2024-03-23T05:11:12;11.60;99.90
31747;DHT22;18319;48.974;8.462;2024-03-23T05:13:38;11.70;99.90
31747;DHT22;18319;48.974;8.462;2024-03-23T05:16:06;11.70;99.90
31747;DHT22;18319;48.974;8.462;2024-03-23T05:18:33;11.60;99.90
31747;DHT22;18319;48.974;8.462;2024-03-23T05:20:59;11.50;99.90
31747;DHT22;18319;48.974;8.462;2024-03-23T05:23:26;11.50;99.90
31747;DHT22;18319;48.974;8.462;2024-03-23T05:25:52;11.30;99.90
31747;DHT22;18319;48.974;8.462;2024-03-23T05:28:19;11.20;99.90
31747;DHT22;18319;48.974;8.462;2024-03-23T05:30:50;11.20;99.90
31747;DHT22;18319;48.974;8.462;2024-03-23T05:33:19;11.10;99.90
31747;DHT22;18319;48.974;8.462;2024-03-23T05:35:45;11.10;99.90
31747;DHT22;18319;48.974;8.462;2024-03-23T05:38:13;11.20;99.90
31747;DHT22;18319;48.974;8.462;2024-03-23T05:40:39;11.20;99.90
31747;DHT22;18319;48.974;8.462;2024-03-23T05:43:06;11.20;99.90
31747;DHT22;18319;48.974;8.462;2024-03-23T05:45:31;11.10;99.90
31747;DHT22;18319;48.974;8.462;2024-03-23T05:47:58;10.90;99.90
31747;DHT22;18319;48.974;8.462;2024-03-23T05:50:25;10.90;99.90
31747;DHT22;18319;48.974;8.462;2024-03-23T05:52:52;10.90;99.90
31747;DHT22;18319;48.974;8.462;2024-03-23T05:55:19;10.90;99.90
31747;DHT22;18319;48.974;8.462;2024-03-23T05:57:45;10.90;99.90
31747;DHT22;18319;48.974;8.462;2024-03-23T06:00:12;10.90;99.90
31747;DHT22;18319;48.974;8.462;2024-03-23T06:02:41;10.70;99.90
31747;DHT22;18319;48.974;8.462;2024-03-23T06:05:10;10.70;99.90
31747;DHT22;18319;48.974;8.462;2024-03-23T06:07:37;10.70;99.90
31747;DHT22;18319;48.974;8.462;2024-03-23T06:10:04;10.70;99.90
31747;DHT22;18319;48.974;8.462;2024-03-23T06:12:31;10.70;99.90
31747;DHT22;18319;48.974;8.462;2024-03-23T06:14:57;10.50;99.90
31747;DHT22;18319;48.974;8.462;2024-03-23T06:17:23;10.50;99.90
31747;DHT22;18319;48.974;8.462;2024-03-23T06:19:50;10.50;99.90
31747;DHT22;18319;48.974;8.462;2024-03-23T06:22:16;10.50;99.90
31747;DHT22;18319;48.974;8.462;2024-03-23T06:24:44;10.60;99.90
31747;DHT22;18319;48.974;8.462;2024-03-23T06:27:10;10.60;99.90
31747;DHT22;18319;48.974;8.462;2024-03-23T06:29:37;10.60;99.90
31747;DHT22;18319;48.974;8.462;2024-03-23T06:32:02;10.70;99.90
31747;DHT22;18319;48.974;8.462;2024-03-23T06:34:30;10.70;99.90
31747;DHT22;18319;48.974;8.462;2024-03-23T06:36:56;10.60;99.90
31747;DHT22;18319;48.974;8.462;2024-03-23T06:39:22;10.50;99.90
31747;DHT22;18319;48.974;8.462;2024-03-23T06:41:53;10.30;99.90
31747;DHT22;18319;48.974;8.462;2024-03-23T06:44:19;10.30;99.90
31747;DHT22;18319;48.974;8.462;2024-03-23T06:46:46;10.30;99.90
31747;DHT22;18319;48.974;8.462;2024-03-23T06:49:12;10.30;99.90
31747;DHT22;18319;48.974;8.462;2024-03-23T06:51:39;10.30;99.90
31747;DHT22;18319;48.974;8.462;2024-03-23T06:54:05;10.30;99.90
31747;DHT22;18319;48.974;8.462;2024-03-23T06:56:32;10.40;99.90
31747;DHT22;18319;48.974;8.462;2024-03-23T06:58:59;10.40;99.90
31747;DHT22;18319;48.974;8.462;2024-03-23T07:01:26;10.30;99.90
31747;DHT22;18319;48.974;8.462;2024-03-23T07:03:52;10.30;99.90
31747;DHT22;18319;48.974;8.462;2024-03-23T07:06:18;10.20;99.90
31747;DHT22;18319;48.974;8.462;2024-03-23T07:08:44;10.20;99.90
31747;DHT22;18319;48.974;8.462;2024-03-23T07:11:11;10.10;99.90
31747;DHT22;18319;48.974;8.462;2024-03-23T07:13:37;10.10;99.90
31747;DHT22;18319;48.974;8.462;2024-03-23T07:16:06;10.00;99.90
31747;DHT22;18319;48.974;8.462;2024-03-23T07:18:31;10.00;99.90
31747;DHT22;18319;48.974;8.462;2024-03-23T07:21:00;10.10;99.90
31747;DHT22;18319;48.974;8.462;2024-03-23T07:23:25;10.20;99.90
31747;DHT22;18319;48.974;8.462;2024-03-23T07:25:58;10.10;99.90
31747;DHT22;18319;48.974;8.462;2024-03-23T07:28:24;10.10;99.90
31747;DHT22;18319;48.974;8.462;2024-03-23T07:31:02;10.10;99.90
31747;DHT22;18319;48.974;8.462;2024-03-23T07:33:29;10.00;99.90
31747;DHT22;18319;48.974;8.462;2024-03-23T07:35:56;10.00;99.90
31747;DHT22;18319;48.974;8.462;2024-03-23T07:38:23;9.90;99.90
31747;DHT22;18319;48.974;8.462;2024-03-23T07:40:50;9.90;99.90
31747;DHT22;18319;48.974;8.462;2024-03-23T07:43:20;9.90;99.90
31747;DHT22;18319;48.974;8.462;2024-03-23T07:45:51;9.90;99.90
31747;DHT22;18319;48.974;8.462;2024-03-23T07:48:17;10.10;99.90
31747;DHT22;18319;48.974;8.462;2024-03-23T07:50:45;10.10;99.90
31747;DHT22;18319;48.974;8.462;2024-03-23T07:53:11;10.20;99.90
31747;DHT22;18319;48.974;8.462;2024-03-23T07:55:38;10.30;99.90
31747;DHT22;18319;48.974;8.462;2024-03-23T07:58:04;10.20;99.90
31747;DHT22;18319;48.974;8.462;2024-03-23T08:00:31;10.30;99.90
31747;DHT22;18319;48.974;8.462;2024-03-23T08:02:57;10.20;99.90
31747;DHT22;18319;48.974;8.462;2024-03-23T08:05:26;10.20;99.90
31747;DHT22;18319;48.974;8.462;2024-03-23T08:07:53;10.10;99.90
31747;DHT22;18319;48.974;8.462;2024-03-23T08:10:20;10.20;99.90
31747;DHT22;18319;48.974;8.462;2024-03-23T08:12:46;10.20;99.90
31747;DHT22;18319;48.974;8.462;2024-03-23T08:15:13;10.30;99.90
31747;DHT22;18319;48.974;8.462;2024-03-23T08:17:39;10.40;99.90
31747;DHT22;18319;48.974;8.462;2024-03-23T08:20:07;10.30;99.90
31747;DHT22;18319;48.974;8.462;2024-03-23T08:22:34;10.20;99.90
31747;DHT22;18319;48.974;8.462;2024-03-23T08:25:01;10.10;99.90
31747;DHT22;18319;48.974;8.462;2024-03-23T08:27:29;10.10;99.90
31747;DHT22;18319;48.974;8.462;2024-03-23T08:29:54;10.20;99.90
31747;DHT22;18319;48.974;8.462;2024-03-23T08:32:21;10.50;99.90
31747;DHT22;18319;48.974;8.462;2024-03-23T08:34:47;10.90;99.90
31747;DHT22;18319;48.974;8.462;2024-03-23T08:37:14;11.10;99.90
31747;DHT22;18319;48.974;8.462;2024-03-23T08:39:39;11.40;99.90
31747;DHT22;18319;48.974;8.462;2024-03-23T08:42:07;11.60;99.90
31747;DHT22;18319;48.974;8.462;2024-03-23T08:44:33;11.70;99.90
31747;DHT22;18319;48.974;8.462;2024-03-23T08:47:01;11.60;99.90
31747;DHT22;18319;48.974;8.462;2024-03-23T08:49:27;11.30;99.90
31747;DHT22;18319;48.974;8.462;2024-03-23T08:51:53;11.20;99.90
31747;DHT22;18319;48.974;8.462;2024-03-23T08:54:20;11.10;99.90
31747;DHT22;18319;48.974;8.462;2024-03-23T08:56:48;11.00;99.90
31747;DHT22;18319;48.974;8.462;2024-03-23T08:59:15;11.20;99.90
31747;DHT22;18319;48.974;8.462;2024-03-23T09:01:42;11.10;99.90
31747;DHT22;18319;48.974;8.462;2024-03-23T09:04:07;11.40;99.90
31747;DHT22;18319;48.974;8.462;2024-03-23T09:06:34;11.70;99.90
31747;DHT22;18319;48.974;8.462;2024-03-23T09:09:00;11.90;99.90
31747;DHT22;18319;48.974;8.462;2024-03-23T09:11:27;12.00;99.90
31747;DHT22;18319;48.974;8.462;2024-03-23T09:13:53;12.10;99.90
31747;DHT22;18319;48.974;8.462;2024-03-23T09:16:21;12.20;99.90
31747;DHT22;18319;48.974;8.462;2024-03-23T09:18:47;12.00;99.90
31747;DHT22;18319;48.974;8.462;2024-03-23T09:21:14;11.70;99.90
31747;DHT22;18319;48.974;8.462;2024-03-23T09:23:40;11.60;99.90
31747;DHT22;18319;48.974;8.462;2024-03-23T09:26:07;11.60;99.90
31747;DHT22;18319;48.974;8.462;2024-03-23T09:28:33;11.30;99.90
31747;DHT22;18319;48.974;8.462;2024-03-23T09:31:02;11.20;99.90
31747;DHT22;18319;48.974;8.462;2024-03-23T09:33:29;11.00;99.90
31747;DHT22;18319;48.974;8.462;2024-03-23T09:35:56;10.90;99.90
31747;DHT22;18319;48.974;8.462;2024-03-23T09:38:22;10.70;99.90
31747;DHT22;18319;48.974;8.462;2024-03-23T09:40:53;10.60;99.90
31747;DHT22;18319;48.974;8.462;2024-03-23T09:43:19;10.50;99.90
31747;DHT22;18319;48.974;8.462;2024-03-23T09:45:46;10.60;99.90
31747;DHT22;18319;48.974;8.462;2024-03-23T09:48:12;10.60;99.90
31747;DHT22;18319;48.974;8.462;2024-03-23T09:50:42;10.60;99.90
31747;DHT22;18319;48.974;8.462;2024-03-23T09:53:08;10.40;99.90
31747;DHT22;18319;48.974;8.462;2024-03-23T09:55:36;10.20;99.90
31747;DHT22;18319;48.974;8.462;2024-03-23T09:58:01;10.20;99.90
31747;DHT22;18319;48.974;8.462;2024-03-23T10:00:30;10.20;99.90
31747;DHT22;18319;48.974;8.462;2024-03-23T10:02:56;10.20;99.90
31747;DHT22;18319;48.974;8.462;2024-03-23T10:05:23;10.00;99.90
31747;DHT22;18319;48.974;8.462;2024-03-23T10:07:51;9.60;99.90
31747;DHT22;18319;48.974;8.462;2024-03-23T10:10:18;9.40;99.90
31747;DHT22;18319;48.974;8.462;2024-03-23T10:12:45;9.20;99.90
31747;DHT22;18319;48.974;8.462;2024-03-23T10:15:18;9.20;99.90
31747;DHT22;18319;48.974;8.462;2024-03-23T10:17:45;9.30;99.90
31747;DHT22;18319;48.974;8.462;2024-03-23T10:20:12;9.40;99.90
31747;DHT22;18319;48.974;8.462;2024-03-23T10:22:38;9.40;99.90
31747;DHT22;18319;48.974;8.462;2024-03-23T10:25:11;9.40;99.90
31747;DHT22;18319;48.974;8.462;2024-03-23T10:27:37;9.30;99.90
31747;DHT22;18319;48.974;8.462;2024-03-23T10:30:11;9.50;99.90
31747;DHT22;18319;48.974;8.462;2024-03-23T10:32:37;9.60;99.90
31747;DHT22;18319;48.974;8.462;2024-03-23T10:35:14;9.70;99.90
31747;DHT22;18319;48.974;8.462;2024-03-23T10:37:40;9.70;99.90
31747;DHT22;18319;48.974;8.462;2024-03-23T10:40:10;9.30;99.90
31747;DHT22;18319;48.974;8.462;2024-03-23T10:42:38;9.40;99.90
31747;DHT22;18319;48.974;8.462;2024-03-23T10:45:04;9.70;99.90
31747;DHT22;18319;48.974;8.462;2024-03-23T10:47:31;9.90;99.90
31747;DHT22;18319;48.974;8.462;2024-03-23T10:49:57;9.90;99.90
31747;DHT22;18319;48.974;8.462;2024-03-23T10:52:24;10.10;99.90
31747;DHT22;18319;48.974;8.462;2024-03-23T10:54:51;10.30;99.90
31747;DHT22;18319;48.974;8.462;2024-03-23T10:57:23;10.10;99.90
31747;DHT22;18319;48.974;8.462;2024-03-23T10:59:51;9.90;99.90
31747;DHT22;18319;48.974;8.462;2024-03-23T11:02:19;9.90;99.90
31747;DHT22;18319;48.974;8.462;2024-03-23T11:04:46;10.00;99.90
31747;DHT22;18319;48.974;8.462;2024-03-23T11:07:30;10.10;99.90
31747;DHT22;18319;48.974;8.462;2024-03-23T11:09:57;10.00;99.90
31747;DHT22;18319;48.974;8.462;2024-03-23T11:12:29;10.00;99.90
31747;DHT22;18319;48.974;8.462;2024-03-23T11:14:59;10.30;99.90
31747;DHT22;18319;48.974;8.462;2024-03-23T11:17:27;10.30;99.90
31747;DHT22;18319;48.974;8.462;2024-03-23T11:19:53;10.20;99.90
31747;DHT22;18319;48.974;8.462;2024-03-23T11:22:43;10.20;99.90
31747;DHT22;18319;48.974;8.462;2024-03-23T11:25:17;10.20;99.90
31747;DHT22;18319;48.974;8.462;2024-03-23T11:27:48;10.20;99.90
31747;DHT22;18319;48.974;8.462;2024-03-23T11:30:15;10.40;99.90
31747;DHT22;18319;48.974;8.462;2024-03-23T11:32:43;10.50;99.90
31747;DHT22;18319;48.974;8.462;2024-03-23T11:35:09;10.50;99.90
31747;DHT22;18319;48.974;8.462;2024-03-23T11:37:37;10.70;99.90
31747;DHT22;18319;48.974;8.462;2024-03-23T11:40:17;10.60;99.90
31747;DHT22;18319;48.974;8.462;2024-03-23T11:42:44;10.80;99.90
31747;DHT22;18319;48.974;8.462;2024-03-23T11:45:12;10.90;99.90
31747;DHT22;18319;48.974;8.462;2024-03-23T11:47:39;10.90;99.90
31747;DHT22;18319;48.974;8.462;2024-03-23T11:50:05;10.80;99.90
31747;DHT22;18319;48.974;8.462;2024-03-23T11:52:32;10.70;99.90
31747;DHT22;18319;48.974;8.462;2024-03-23T11:55:03;10.60;99.90
31747;DHT22;18319;48.974;8.462;2024-03-23T11:57:30;10.40;99.90
31747;DHT22;18319;48.974;8.462;2024-03-23T11:59:56;10.60;99.90
31747;DHT22;18319;48.974;8.462;2024-03-23T12:02:24;10.70;99.90
31747;DHT22;18319;48.974;8.462;2024-03-23T12:04:50;10.60;99.90
31747;DHT22;18319;48.974;8.462;2024-03-23T12:07:19;10.40;99.90
31747;DHT22;18319;48.974;8.462;2024-03-23T12:09:46;10.30;99.90
31747;DHT22;18319;48.974;8.462;2024-03-23T12:12:15;10.20;99.90
31747;DHT22;18319;48.974;8.462;2024-03-23T12:14:41;10.70;99.90
31747;DHT22;18319;48.974;8.462;2024-03-23T12:17:12;10.80;99.90
31747;DHT22;18319;48.974;8.462;2024-03-23T12:19:40;10.80;99.90
31747;DHT22;18319;48.974;8.462;2024-03-23T12:22:08;10.60;99.90
31747;DHT22;18319;48.974;8.462;2024-03-23T12:24:34;10.60;99.90
31747;DHT22;18319;48.974;8.462;2024-03-23T12:27:01;10.40;99.90
31747;DHT22;18319;48.974;8.462;2024-03-23T12:29:29;10.60;99.90
31747;DHT22;18319;48.974;8.462;2024-03-23T12:31:58;10.70;99.90
31747;DHT22;18319;48.974;8.462;2024-03-23T12:34:24;10.80;99.90
31747;DHT22;18319;48.974;8.462;2024-03-23T12:36:52;10.90;99.90
31747;DHT22;18319;48.974;8.462;2024-03-23T12:39:18;11.10;99.90
31747;DHT22;18319;48.974;8.462;2024-03-23T12:41:46;11.30;99.90
31747;DHT22;18319;48.974;8.462;2024-03-23T12:44:12;11.50;99.90
31747;DHT22;18319;48.974;8.462;2024-03-23T12:46:39;11.60;99.90
31747;DHT22;18319;48.974;8.462;2024-03-23T12:49:05;11.70;99.90
31747;DHT22;18319;48.974;8.462;2024-03-23T12:51:31;11.40;99.90
31747;DHT22;18319;48.974;8.462;2024-03-23T12:53:59;11.20;99.90
31747;DHT22;18319;48.974;8.462;2024-03-23T12:56:26;11.10;99.90
31747;DHT22;18319;48.974;8.462;2024-03-23T12:58:53;10.80;99.90
31747;DHT22;18319;48.974;8.462;2024-03-23T13:01:22;10.70;99.90
31747;DHT22;18319;48.974;8.462;2024-03-23T13:03:48;10.20;99.90
31747;DHT22;18319;48.974;8.462;2024-03-23T13:06:15;10.10;99.90
31747;DHT22;18319;48.974;8.462;2024-03-23T13:08:41;9.70;99.90
31747;DHT22;18319;48.974;8.462;2024-03-23T13:11:10;9.30;99.90
31747;DHT22;18319;48.974;8.462;2024-03-23T13:13:36;9.20;99.90
31747;DHT22;18319;48.974;8.462;2024-03-23T13:16:04;9.10;99.90
31747;DHT22;18319;48.974;8.462;2024-03-23T13:18:31;9.20;99.90
31747;DHT22;18319;48.974;8.462;2024-03-23T13:20:58;9.60;99.90
31747;DHT22;18319;48.974;8.462;2024-03-23T13:23:24;9.60;99.90
31747;DHT22;18319;48.974;8.462;2024-03-23T13:25:51;9.70;99.90
31747;DHT22;18319;48.974;8.462;2024-03-23T13:28:19;9.60;99.90
31747;DHT22;18319;48.974;8.462;2024-03-23T13:30:51;9.60;99.90
31747;DHT22;18319;48.974;8.462;2024-03-23T13:33:17;9.80;99.90
31747;DHT22;18319;48.974;8.462;2024-03-23T13:35:49;9.80;99.90
31747;DHT22;18319;48.974;8.462;2024-03-23T13:38:15;9.80;99.90
31747;DHT22;18319;48.974;8.462;2024-03-23T13:40:50;9.60;99.90
31747;DHT22;18319;48.974;8.462;2024-03-23T13:43:16;9.70;99.90
31747;DHT22;18319;48.974;8.462;2024-03-23T13:45:44;9.60;99.90
31747;DHT22;18319;48.974;8.462;2024-03-23T13:48:10;9.70;99.90
31747;DHT22;18319;48.974;8.462;2024-03-23T13:50:36;9.90;99.90
31747;DHT22;18319;48.974;8.462;2024-03-23T13:53:02;10.10;99.90
31747;DHT22;18319;48.974;8.462;2024-03-23T13:55:29;10.40;99.90
31747;DHT22;18319;48.974;8.462;2024-03-23T13:57:55;10.50;99.90
31747;DHT22;18319;48.974;8.462;2024-03-23T14:00:22;10.50;99.90
31747;DHT22;18319;48.974;8.462;2024-03-23T14:02:49;10.40;99.90
31747;DHT22;18319;48.974;8.462;2024-03-23T14:05:16;10.40;99.90
31747;DHT22;18319;48.974;8.462;2024-03-23T14:07:42;10.50;99.90
31747;DHT22;18319;48.974;8.462;2024-03-23T14:10:09;10.50;99.90
31747;DHT22;18319;48.974;8.462;2024-03-23T14:12:36;10.50;99.90
31747;DHT22;18319;48.974;8.462;2024-03-23T14:15:05;10.60;99.90
31747;DHT22;18319;48.974;8.462;2024-03-23T14:17:31;10.50;99.90
31747;DHT22;18319;48.974;8.462;2024-03-23T14:19:59;10.40;99.90
31747;DHT22;18319;48.974;8.462;2024-03-23T14:22:26;10.50;99.90
31747;DHT22;18319;48.974;8.462;2024-03-23T14:24:53;10.30;99.90
31747;DHT22;18319;48.974;8.462;2024-03-23T14:27:19;10.00;99.90
31747;DHT22;18319;48.974;8.462;2024-03-23T14:29:47;9.50;99.90
31747;DHT22;18319;48.974;8.462;2024-03-23T14:32:13;8.90;99.90
31747;DHT22;18319;48.974;8.462;2024-03-23T14:34:40;8.80;99.90
31747;DHT22;18319;48.974;8.462;2024-03-23T14:37:07;8.70;99.90
31747;DHT22;18319;48.974;8.462;2024-03-23T14:39:34;9.00;99.90
31747;DHT22;18319;48.974;8.462;2024-03-23T14:42:00;9.10;99.90
31747;DHT22;18319;48.974;8.462;2024-03-23T14:44:27;9.30;99.90
31747;DHT22;18319;48.974;8.462;2024-03-23T14:46:53;9.40;99.90
31747;DHT22;18319;48.974;8.462;2024-03-23T14:49:20;9.40;99.90
31747;DHT22;18319;48.974;8.462;2024-03-23T14:51:46;9.30;99.90
31747;DHT22;18319;48.974;8.462;2024-03-23T14:54:15;9.20;99.90
31747;DHT22;18319;48.974;8.462;2024-03-23T14:56:40;9.00;99.90
31747;DHT22;18319;48.974;8.462;2024-03-23T14:59:07;9.00;99.90
31747;DHT22;18319;48.974;8.462;2024-03-23T15:01:33;9.10;99.90
31747;DHT22;18319;48.974;8.462;2024-03-23T15:04:00;9.00;99.90
31747;DHT22;18319;48.974;8.462;2024-03-23T15:06:26;8.90;99.90
31747;DHT22;18319;48.974;8.462;2024-03-23T15:08:53;8.90;99.90
31747;DHT22;18319;48.974;8.462;2024-03-23T15:11:21;8.90;99.90
31747;DHT22;18319;48.974;8.462;2024-03-23T15:13:50;9.00;99.90
31747;DHT22;18319;48.974;8.462;2024-03-23T15:16:17;9.10;99.90
31747;DHT22;18319;48.974;8.462;2024-03-23T15:18:46;9.10;99.90
31747;DHT22;18319;48.974;8.462;2024-03-23T15:21:12;9.00;99.90
31747;DHT22;18319;48.974;8.462;2024-03-23T15:23:40;9.10;99.90
31747;DHT22;18319;48.974;8.462;2024-03-23T15:26:09;9.10;99.90
31747;DHT22;18319;48.974;8.462;2024-03-23T15:28:37;9.10;99.90
31747;DHT22;18319;48.974;8.462;2024-03-23T15:31:08;9.30;99.90
31747;DHT22;18319;48.974;8.462;2024-03-23T15:33:35;9.30;99.90
31747;DHT22;18319;48.974;8.462;2024-03-23T15:36:01;9.30;99.90
31747;DHT22;18319;48.974;8.462;2024-03-23T15:38:28;9.30;99.90
31747;DHT22;18319;48.974;8.462;2024-03-23T15:40:55;9.30;99.90
31747;DHT22;18319;48.974;8.462;2024-03-23T15:43:21;9.40;99.90
31747;DHT22;18319;48.974;8.462;2024-03-23T15:45:55;9.60;99.90
31747;DHT22;18319;48.974;8.462;2024-03-23T15:48:22;9.80;99.90
31747;DHT22;18319;48.974;8.462;2024-03-23T15:50:51;9.70;99.90
31747;DHT22;18319;48.974;8.462;2024-03-23T15:53:19;9.70;99.90
31747;DHT22;18319;48.974;8.462;2024-03-23T15:55:45;9.60;99.90
31747;DHT22;18319;48.974;8.462;2024-03-23T15:58:11;9.70;99.90
31747;DHT22;18319;48.974;8.462;2024-03-23T16:00:37;9.50;99.90
31747;DHT22;18319;48.974;8.462;2024-03-23T16:03:06;9.20;99.90
31747;DHT22;18319;48.974;8.462;2024-03-23T16:05:31;9.10;99.90
31747;DHT22;18319;48.974;8.462;2024-03-23T16:07:58;9.00;99.90
31747;DHT22;18319;48.974;8.462;2024-03-23T16:10:24;9.10;99.90
31747;DHT22;18319;48.974;8.462;2024-03-23T16:12:51;9.00;99.90
31747;DHT22;18319;48.974;8.462;2024-03-23T16:15:17;9.00;99.90
31747;DHT22;18319;48.974;8.462;2024-03-23T16:17:43;9.10;99.90
31747;DHT22;18319;48.974;8.462;2024-03-23T16:20:12;8.90;99.90
31747;DHT22;18319;48.974;8.462;2024-03-23T16:22:39;8.80;99.90
31747;DHT22;18319;48.974;8.462;2024-03-23T16:25:05;8.90;99.90
31747;DHT22;18319;48.974;8.462;2024-03-23T16:27:33;8.90;99.90